sensor_id;sensor_type;location;lat;lon;timestamp;P1;durP1;ratioP1;P2;durP2;ratioP2
49051;SDS011;34866;48.670;18.260;2023-04-25T00:01:33;10.88;;;5.10;;
49051;SDS011;34866;48.670;18.260;2023-04-25T00:04:02;9.88;;;5.55;;
49051;SDS011;34866;48.670;18.260;2023-04-25T00:06:28;6.95;;;4.30;;
49051;SDS011;34866;48.670;18.260;2023-04-25T00:08:56;10.45;;;5.00;;
49051;SDS011;34866;48.670;18.260;2023-04-25T00:11:22;9.65;;;4.32;;
49051;SDS011;34866;48.670;18.260;2023-04-25T00:13:48;7.65;;;3.90;;
49051;SDS011;34866;48.670;18.260;2023-04-25T00:16:15;10.52;;;4.13;;
49051;SDS011;34866;48.670;18.260;2023-04-25T00:18:42;8.23;;;5.00;;
49051;SDS011;34866;48.670;18.260;2023-04-25T00:21:16;13.80;;;4.65;;
49051;SDS011;34866;48.670;18.260;2023-04-25T00:23:43;8.52;;;4.53;;
49051;SDS011;34866;48.670;18.260;2023-04-25T00:26:10;7.50;;;4.30;;
49051;SDS011;34866;48.670;18.260;2023-04-25T00:28:36;7.45;;;3.88;;
49051;SDS011;34866;48.670;18.260;2023-04-25T00:31:02;8.90;;;4.32;;
49051;SDS011;34866;48.670;18.260;2023-04-25T00:33:30;9.27;;;4.05;;
49051;SDS011;34866;48.670;18.260;2023-04-25T00:35:55;12.52;;;4.22;;
49051;SDS011;34866;48.670;18.260;2023-04-25T00:38:21;8.18;;;4.05;;
49051;SDS011;34866;48.670;18.260;2023-04-25T00:40:47;9.88;;;4.30;;
49051;SDS011;34866;48.670;18.260;2023-04-25T00:43:13;7.35;;;3.90;;
49051;SDS011;34866;48.670;18.260;2023-04-25T00:45:39;7.43;;;4.03;;
49051;SDS011;34866;48.670;18.260;2023-04-25T00:48:05;6.25;;;3.72;;
49051;SDS011;34866;48.670;18.260;2023-04-25T00:50:34;7.50;;;4.05;;
49051;SDS011;34866;48.670;18.260;2023-04-25T00:53:01;11.35;;;3.70;;
49051;SDS011;34866;48.670;18.260;2023-04-25T00:55:28;6.10;;;3.35;;
49051;SDS011;34866;48.670;18.260;2023-04-25T00:57:54;5.97;;;3.13;;
49051;SDS011;34866;48.670;18.260;2023-04-25T01:00:20;7.45;;;3.38;;
49051;SDS011;34866;48.670;18.260;2023-04-25T01:02:46;6.68;;;3.25;;
49051;SDS011;34866;48.670;18.260;2023-04-25T01:05:12;6.93;;;2.95;;
49051;SDS011;34866;48.670;18.260;2023-04-25T01:07:38;7.47;;;3.35;;
49051;SDS011;34866;48.670;18.260;2023-04-25T01:10:04;7.32;;;3.45;;
49051;SDS011;34866;48.670;18.260;2023-04-25T01:12:31;7.35;;;3.17;;
49051;SDS011;34866;48.670;18.260;2023-04-25T01:14:57;7.55;;;4.00;;
49051;SDS011;34866;48.670;18.260;2023-04-25T01:17:23;12.35;;;3.53;;
49051;SDS011;34866;48.670;18.260;2023-04-25T01:19:49;7.43;;;4.22;;
49051;SDS011;34866;48.670;18.260;2023-04-25T01:22:15;6.55;;;3.70;;
49051;SDS011;34866;48.670;18.260;2023-04-25T01:24:42;9.05;;;3.45;;
49051;SDS011;34866;48.670;18.260;2023-04-25T01:27:08;6.43;;;3.25;;
49051;SDS011;34866;48.670;18.260;2023-04-25T01:29:34;9.18;;;4.22;;
49051;SDS011;34866;48.670;18.260;2023-04-25T01:32:03;6.68;;;3.92;;
49051;SDS011;34866;48.670;18.260;2023-04-25T01:34:30;6.63;;;3.88;;
49051;SDS011;34866;48.670;18.260;2023-04-25T01:36:56;6.32;;;3.42;;
49051;SDS011;34866;48.670;18.260;2023-04-25T01:39:24;7.38;;;3.58;;
49051;SDS011;34866;48.670;18.260;2023-04-25T01:41:50;6.38;;;3.65;;
49051;SDS011;34866;48.670;18.260;2023-04-25T01:44:15;8.32;;;4.20;;
49051;SDS011;34866;48.670;18.260;2023-04-25T01:46:41;6.35;;;3.30;;
49051;SDS011;34866;48.670;18.260;2023-04-25T01:49:07;6.72;;;3.92;;
49051;SDS011;34866;48.670;18.260;2023-04-25T01:51:33;7.00;;;4.13;;
49051;SDS011;34866;48.670;18.260;2023-04-25T01:53:59;8.10;;;4.68;;
49051;SDS011;34866;48.670;18.260;2023-04-25T01:56:29;9.00;;;4.47;;
49051;SDS011;34866;48.670;18.260;2023-04-25T01:58:56;9.65;;;4.07;;
49051;SDS011;34866;48.670;18.260;2023-04-25T02:01:22;10.00;;;3.75;;
49051;SDS011;34866;48.670;18.260;2023-04-25T02:03:48;10.38;;;4.90;;
49051;SDS011;34866;48.670;18.260;2023-04-25T02:06:13;12.30;;;4.38;;
49051;SDS011;34866;48.670;18.260;2023-04-25T02:08:39;8.90;;;4.25;;
49051;SDS011;34866;48.670;18.260;2023-04-25T02:11:06;7.75;;;4.25;;
49051;SDS011;34866;48.670;18.260;2023-04-25T02:13:32;8.02;;;4.13;;
49051;SDS011;34866;48.670;18.260;2023-04-25T02:15:58;7.85;;;4.28;;
49051;SDS011;34866;48.670;18.260;2023-04-25T02:18:23;7.47;;;4.30;;
49051;SDS011;34866;48.670;18.260;2023-04-25T02:20:51;8.88;;;4.93;;
49051;SDS011;34866;48.670;18.260;2023-04-25T02:23:17;8.18;;;4.70;;
49051;SDS011;34866;48.670;18.260;2023-04-25T02:25:44;7.80;;;4.05;;
49051;SDS011;34866;48.670;18.260;2023-04-25T02:28:10;9.65;;;4.93;;
49051;SDS011;34866;48.670;18.260;2023-04-25T02:30:35;8.65;;;4.30;;
49051;SDS011;34866;48.670;18.260;2023-04-25T02:33:01;7.57;;;4.00;;
49051;SDS011;34866;48.670;18.260;2023-04-25T02:35:28;5.80;;;3.38;;
49051;SDS011;34866;48.670;18.260;2023-04-25T02:37:54;8.00;;;3.60;;
49051;SDS011;34866;48.670;18.260;2023-04-25T02:40:20;7.30;;;3.72;;
49051;SDS011;34866;48.670;18.260;2023-04-25T02:42:45;7.50;;;4.05;;
49051;SDS011;34866;48.670;18.260;2023-04-25T02:45:12;7.68;;;4.18;;
49051;SDS011;34866;48.670;18.260;2023-04-25T02:47:38;7.80;;;4.20;;
49051;SDS011;34866;48.670;18.260;2023-04-25T02:50:04;10.32;;;3.92;;
49051;SDS011;34866;48.670;18.260;2023-04-25T02:52:30;7.97;;;4.40;;
49051;SDS011;34866;48.670;18.260;2023-04-25T02:54:56;9.35;;;4.15;;
49051;SDS011;34866;48.670;18.260;2023-04-25T02:57:22;8.50;;;4.38;;
49051;SDS011;34866;48.670;18.260;2023-04-25T02:59:48;8.15;;;4.10;;
49051;SDS011;34866;48.670;18.260;2023-04-25T03:02:15;7.85;;;3.75;;
49051;SDS011;34866;48.670;18.260;2023-04-25T03:04:41;7.90;;;3.95;;
49051;SDS011;34866;48.670;18.260;2023-04-25T03:07:07;12.65;;;3.88;;
49051;SDS011;34866;48.670;18.260;2023-04-25T03:09:33;6.80;;;4.07;;
49051;SDS011;34866;48.670;18.260;2023-04-25T03:11:58;8.27;;;4.38;;
49051;SDS011;34866;48.670;18.260;2023-04-25T03:14:24;8.55;;;4.95;;
49051;SDS011;34866;48.670;18.260;2023-04-25T03:16:50;6.95;;;3.97;;
49051;SDS011;34866;48.670;18.260;2023-04-25T03:19:16;7.53;;;3.88;;
49051;SDS011;34866;48.670;18.260;2023-04-25T03:21:42;7.35;;;4.30;;
49051;SDS011;34866;48.670;18.260;2023-04-25T03:24:08;8.45;;;4.40;;
49051;SDS011;34866;48.670;18.260;2023-04-25T03:26:37;9.00;;;4.45;;
49051;SDS011;34866;48.670;18.260;2023-04-25T03:29:03;8.85;;;4.70;;
49051;SDS011;34866;48.670;18.260;2023-04-25T03:31:28;7.18;;;4.22;;
49051;SDS011;34866;48.670;18.260;2023-04-25T03:33:55;9.57;;;4.05;;
49051;SDS011;34866;48.670;18.260;2023-04-25T03:36:24;10.30;;;5.00;;
49051;SDS011;34866;48.670;18.260;2023-04-25T03:38:49;9.50;;;5.70;;
49051;SDS011;34866;48.670;18.260;2023-04-25T03:41:18;10.40;;;4.28;;
49051;SDS011;34866;48.670;18.260;2023-04-25T03:43:44;8.30;;;4.13;;
49051;SDS011;34866;48.670;18.260;2023-04-25T03:46:10;10.63;;;5.20;;
49051;SDS011;34866;48.670;18.260;2023-04-25T03:48:37;8.68;;;4.30;;
49051;SDS011;34866;48.670;18.260;2023-04-25T03:51:03;8.60;;;4.63;;
49051;SDS011;34866;48.670;18.260;2023-04-25T03:53:28;6.43;;;4.13;;
49051;SDS011;34866;48.670;18.260;2023-04-25T03:55:54;11.05;;;5.53;;
49051;SDS011;34866;48.670;18.260;2023-04-25T03:58:20;8.07;;;4.65;;
49051;SDS011;34866;48.670;18.260;2023-04-25T04:00:46;11.10;;;5.63;;
49051;SDS011;34866;48.670;18.260;2023-04-25T04:03:11;9.77;;;4.80;;
49051;SDS011;34866;48.670;18.260;2023-04-25T04:05:37;10.95;;;5.50;;
49051;SDS011;34866;48.670;18.260;2023-04-25T04:08:05;9.10;;;5.30;;
49051;SDS011;34866;48.670;18.260;2023-04-25T04:10:31;8.57;;;4.53;;
49051;SDS011;34866;48.670;18.260;2023-04-25T04:12:57;9.45;;;5.32;;
49051;SDS011;34866;48.670;18.260;2023-04-25T04:15:22;9.07;;;5.07;;
49051;SDS011;34866;48.670;18.260;2023-04-25T04:17:48;11.88;;;5.60;;
49051;SDS011;34866;48.670;18.260;2023-04-25T04:20:14;9.55;;;4.88;;
49051;SDS011;34866;48.670;18.260;2023-04-25T04:22:40;9.20;;;4.50;;
49051;SDS011;34866;48.670;18.260;2023-04-25T04:25:09;8.55;;;4.53;;
49051;SDS011;34866;48.670;18.260;2023-04-25T04:27:36;17.63;;;5.18;;
49051;SDS011;34866;48.670;18.260;2023-04-25T04:30:02;10.75;;;5.07;;
49051;SDS011;34866;48.670;18.260;2023-04-25T04:32:29;8.35;;;4.95;;
49051;SDS011;34866;48.670;18.260;2023-04-25T04:34:55;9.43;;;5.00;;
49051;SDS011;34866;48.670;18.260;2023-04-25T04:37:21;10.85;;;5.43;;
49051;SDS011;34866;48.670;18.260;2023-04-25T04:39:47;10.65;;;4.70;;
49051;SDS011;34866;48.670;18.260;2023-04-25T04:42:20;12.48;;;5.35;;
49051;SDS011;34866;48.670;18.260;2023-04-25T04:44:46;9.25;;;4.95;;
49051;SDS011;34866;48.670;18.260;2023-04-25T04:47:12;9.50;;;4.43;;
49051;SDS011;34866;48.670;18.260;2023-04-25T04:49:39;9.15;;;5.65;;
49051;SDS011;34866;48.670;18.260;2023-04-25T04:52:05;11.02;;;5.20;;
49051;SDS011;34866;48.670;18.260;2023-04-25T04:54:31;8.27;;;5.07;;
49051;SDS011;34866;48.670;18.260;2023-04-25T04:56:56;10.68;;;4.93;;
49051;SDS011;34866;48.670;18.260;2023-04-25T04:59:22;14.50;;;5.13;;
49051;SDS011;34866;48.670;18.260;2023-04-25T05:01:48;9.85;;;4.85;;
49051;SDS011;34866;48.670;18.260;2023-04-25T05:04:13;9.32;;;4.85;;
49051;SDS011;34866;48.670;18.260;2023-04-25T05:06:44;9.13;;;4.80;;
49051;SDS011;34866;48.670;18.260;2023-04-25T05:09:10;10.05;;;4.80;;
49051;SDS011;34866;48.670;18.260;2023-04-25T05:11:35;9.70;;;4.85;;
49051;SDS011;34866;48.670;18.260;2023-04-25T05:14:01;8.15;;;4.35;;
49051;SDS011;34866;48.670;18.260;2023-04-25T05:16:27;7.78;;;4.50;;
49051;SDS011;34866;48.670;18.260;2023-04-25T05:18:53;8.10;;;4.95;;
49051;SDS011;34866;48.670;18.260;2023-04-25T05:21:19;7.03;;;4.70;;
49051;SDS011;34866;48.670;18.260;2023-04-25T05:23:44;9.20;;;4.82;;
49051;SDS011;34866;48.670;18.260;2023-04-25T05:26:10;8.43;;;4.75;;
49051;SDS011;34866;48.670;18.260;2023-04-25T05:28:39;11.75;;;5.38;;
49051;SDS011;34866;48.670;18.260;2023-04-25T05:31:06;8.93;;;4.53;;
49051;SDS011;34866;48.670;18.260;2023-04-25T05:33:32;9.77;;;5.60;;
49051;SDS011;34866;48.670;18.260;2023-04-25T05:35:57;8.68;;;4.65;;
49051;SDS011;34866;48.670;18.260;2023-04-25T05:38:23;11.57;;;5.88;;
49051;SDS011;34866;48.670;18.260;2023-04-25T05:40:49;8.57;;;5.03;;
49051;SDS011;34866;48.670;18.260;2023-04-25T05:43:14;11.60;;;6.22;;
49051;SDS011;34866;48.670;18.260;2023-04-25T05:45:41;9.30;;;5.50;;
49051;SDS011;34866;48.670;18.260;2023-04-25T05:48:07;11.25;;;5.05;;
49051;SDS011;34866;48.670;18.260;2023-04-25T05:50:33;10.10;;;5.25;;
49051;SDS011;34866;48.670;18.260;2023-04-25T05:53:00;8.48;;;4.90;;
49051;SDS011;34866;48.670;18.260;2023-04-25T05:55:26;9.02;;;4.70;;
49051;SDS011;34866;48.670;18.260;2023-04-25T05:57:51;9.18;;;4.90;;
49051;SDS011;34866;48.670;18.260;2023-04-25T06:00:17;10.18;;;5.68;;
49051;SDS011;34866;48.670;18.260;2023-04-25T06:02:43;10.20;;;5.63;;
49051;SDS011;34866;48.670;18.260;2023-04-25T06:05:09;9.27;;;5.20;;
49051;SDS011;34866;48.670;18.260;2023-04-25T06:07:35;14.27;;;5.18;;
49051;SDS011;34866;48.670;18.260;2023-04-25T06:10:01;10.75;;;5.80;;
49051;SDS011;34866;48.670;18.260;2023-04-25T06:12:26;8.88;;;5.20;;
49051;SDS011;34866;48.670;18.260;2023-04-25T06:14:52;9.27;;;5.20;;
49051;SDS011;34866;48.670;18.260;2023-04-25T06:17:19;10.02;;;5.22;;
49051;SDS011;34866;48.670;18.260;2023-04-25T06:19:44;7.22;;;4.68;;
49051;SDS011;34866;48.670;18.260;2023-04-25T06:22:10;9.38;;;5.50;;
49051;SDS011;34866;48.670;18.260;2023-04-25T06:24:35;9.73;;;5.13;;
49051;SDS011;34866;48.670;18.260;2023-04-25T06:27:01;10.32;;;4.90;;
49051;SDS011;34866;48.670;18.260;2023-04-25T06:29:27;8.73;;;5.18;;
49051;SDS011;34866;48.670;18.260;2023-04-25T06:31:53;10.88;;;5.18;;
49051;SDS011;34866;48.670;18.260;2023-04-25T06:34:19;9.63;;;5.15;;
49051;SDS011;34866;48.670;18.260;2023-04-25T06:36:45;8.85;;;5.00;;
49051;SDS011;34866;48.670;18.260;2023-04-25T06:39:11;7.57;;;4.93;;
49051;SDS011;34866;48.670;18.260;2023-04-25T06:41:36;9.52;;;5.28;;
49051;SDS011;34866;48.670;18.260;2023-04-25T06:44:02;11.85;;;5.50;;
49051;SDS011;34866;48.670;18.260;2023-04-25T06:46:28;7.90;;;4.40;;
49051;SDS011;34866;48.670;18.260;2023-04-25T06:48:53;6.88;;;4.63;;
49051;SDS011;34866;48.670;18.260;2023-04-25T06:51:20;6.78;;;3.88;;
49051;SDS011;34866;48.670;18.260;2023-04-25T06:53:46;7.20;;;3.70;;
49051;SDS011;34866;48.670;18.260;2023-04-25T06:56:11;6.85;;;3.38;;
49051;SDS011;34866;48.670;18.260;2023-04-25T06:58:37;5.18;;;3.03;;
49051;SDS011;34866;48.670;18.260;2023-04-25T07:01:03;4.90;;;2.40;;
49051;SDS011;34866;48.670;18.260;2023-04-25T07:03:29;5.80;;;2.40;;
49051;SDS011;34866;48.670;18.260;2023-04-25T07:05:55;9.27;;;2.08;;
49051;SDS011;34866;48.670;18.260;2023-04-25T07:08:20;3.95;;;2.13;;
49051;SDS011;34866;48.670;18.260;2023-04-25T07:10:46;7.50;;;2.20;;
49051;SDS011;34866;48.670;18.260;2023-04-25T07:13:12;3.38;;;1.77;;
49051;SDS011;34866;48.670;18.260;2023-04-25T07:15:38;2.38;;;1.25;;
49051;SDS011;34866;48.670;18.260;2023-04-25T07:18:03;4.68;;;1.60;;
49051;SDS011;34866;48.670;18.260;2023-04-25T07:20:29;4.05;;;1.48;;
49051;SDS011;34866;48.670;18.260;2023-04-25T07:22:59;2.83;;;1.45;;
49051;SDS011;34866;48.670;18.260;2023-04-25T07:25:24;6.63;;;1.88;;
49051;SDS011;34866;48.670;18.260;2023-04-25T07:27:50;5.53;;;1.92;;
49051;SDS011;34866;48.670;18.260;2023-04-25T07:30:16;12.27;;;4.20;;
49051;SDS011;34866;48.670;18.260;2023-04-25T07:32:41;9.77;;;3.90;;
49051;SDS011;34866;48.670;18.260;2023-04-25T07:35:07;3.17;;;1.70;;
49051;SDS011;34866;48.670;18.260;2023-04-25T07:37:34;4.10;;;1.65;;
49051;SDS011;34866;48.670;18.260;2023-04-25T07:40:01;3.95;;;1.60;;
49051;SDS011;34866;48.670;18.260;2023-04-25T07:42:30;4.32;;;1.70;;
49051;SDS011;34866;48.670;18.260;2023-04-25T07:44:59;3.28;;;1.60;;
49051;SDS011;34866;48.670;18.260;2023-04-25T07:47:25;4.70;;;1.38;;
49051;SDS011;34866;48.670;18.260;2023-04-25T07:49:52;9.15;;;1.30;;
49051;SDS011;34866;48.670;18.260;2023-04-25T07:52:18;2.80;;;1.33;;
49051;SDS011;34866;48.670;18.260;2023-04-25T07:54:45;3.80;;;1.50;;
49051;SDS011;34866;48.670;18.260;2023-04-25T07:57:10;5.20;;;1.58;;
49051;SDS011;34866;48.670;18.260;2023-04-25T07:59:38;3.50;;;1.40;;
49051;SDS011;34866;48.670;18.260;2023-04-25T08:02:05;3.17;;;1.65;;
49051;SDS011;34866;48.670;18.260;2023-04-25T08:04:30;2.92;;;1.40;;
49051;SDS011;34866;48.670;18.260;2023-04-25T08:06:58;9.93;;;1.40;;
49051;SDS011;34866;48.670;18.260;2023-04-25T08:09:23;1.67;;;0.80;;
49051;SDS011;34866;48.670;18.260;2023-04-25T08:11:50;1.65;;;1.00;;
49051;SDS011;34866;48.670;18.260;2023-04-25T08:14:16;1.77;;;0.88;;
49051;SDS011;34866;48.670;18.260;2023-04-25T08:16:42;3.10;;;1.10;;
49051;SDS011;34866;48.670;18.260;2023-04-25T08:19:09;2.28;;;0.90;;
49051;SDS011;34866;48.670;18.260;2023-04-25T08:21:36;2.40;;;1.20;;
49051;SDS011;34866;48.670;18.260;2023-04-25T08:24:01;2.88;;;1.02;;
49051;SDS011;34866;48.670;18.260;2023-04-25T08:26:28;1.55;;;0.90;;
49051;SDS011;34866;48.670;18.260;2023-04-25T08:28:54;1.88;;;0.82;;
49051;SDS011;34866;48.670;18.260;2023-04-25T08:31:19;1.55;;;1.00;;
49051;SDS011;34866;48.670;18.260;2023-04-25T08:33:45;1.85;;;0.90;;
49051;SDS011;34866;48.670;18.260;2023-04-25T08:36:11;3.67;;;0.90;;
49051;SDS011;34866;48.670;18.260;2023-04-25T08:38:40;1.65;;;0.80;;
49051;SDS011;34866;48.670;18.260;2023-04-25T08:41:05;3.55;;;1.10;;
49051;SDS011;34866;48.670;18.260;2023-04-25T08:43:31;2.25;;;1.05;;
49051;SDS011;34866;48.670;18.260;2023-04-25T08:46:00;3.28;;;1.50;;
49051;SDS011;34866;48.670;18.260;2023-04-25T08:48:29;1.95;;;1.00;;
49051;SDS011;34866;48.670;18.260;2023-04-25T08:50:58;1.95;;;1.10;;
49051;SDS011;34866;48.670;18.260;2023-04-25T08:53:31;2.53;;;1.23;;
49051;SDS011;34866;48.670;18.260;2023-04-25T08:55:58;2.38;;;1.27;;
49051;SDS011;34866;48.670;18.260;2023-04-25T08:58:28;2.35;;;1.13;;
49051;SDS011;34866;48.670;18.260;2023-04-25T09:00:55;2.30;;;1.33;;
49051;SDS011;34866;48.670;18.260;2023-04-25T09:03:21;1.80;;;1.00;;
49051;SDS011;34866;48.670;18.260;2023-04-25T09:05:47;5.32;;;1.52;;
49051;SDS011;34866;48.670;18.260;2023-04-25T09:08:12;2.63;;;1.23;;
49051;SDS011;34866;48.670;18.260;2023-04-25T09:10:38;2.25;;;1.08;;
49051;SDS011;34866;48.670;18.260;2023-04-25T09:13:13;3.05;;;1.48;;
49051;SDS011;34866;48.670;18.260;2023-04-25T09:16:13;4.03;;;1.63;;
49051;SDS011;34866;48.670;18.260;2023-04-25T09:18:33;7.05;;;2.60;;
49051;SDS011;34866;48.670;18.260;2023-04-25T09:21:06;5.38;;;1.70;;
49051;SDS011;34866;48.670;18.260;2023-04-25T09:23:49;4.50;;;2.08;;
49051;SDS011;34866;48.670;18.260;2023-04-25T09:26:18;3.42;;;1.48;;
49051;SDS011;34866;48.670;18.260;2023-04-25T09:28:45;3.47;;;1.35;;
49051;SDS011;34866;48.670;18.260;2023-04-25T09:31:20;4.32;;;1.70;;
49051;SDS011;34866;48.670;18.260;2023-04-25T09:33:47;3.25;;;1.70;;
49051;SDS011;34866;48.670;18.260;2023-04-25T09:36:12;3.15;;;1.80;;
49051;SDS011;34866;48.670;18.260;2023-04-25T09:38:42;3.50;;;1.50;;
49051;SDS011;34866;48.670;18.260;2023-04-25T09:41:09;4.03;;;2.22;;
49051;SDS011;34866;48.670;18.260;2023-04-25T09:43:36;4.40;;;1.92;;
49051;SDS011;34866;48.670;18.260;2023-04-25T09:46:02;3.38;;;1.80;;
49051;SDS011;34866;48.670;18.260;2023-04-25T09:48:37;3.63;;;1.85;;
49051;SDS011;34866;48.670;18.260;2023-04-25T09:53:30;7.00;;;2.53;;
49051;SDS011;34866;48.670;18.260;2023-04-25T09:55:57;8.98;;;2.15;;
49051;SDS011;34866;48.670;18.260;2023-04-25T09:58:25;3.10;;;1.60;;
49051;SDS011;34866;48.670;18.260;2023-04-25T10:00:54;4.75;;;2.38;;
49051;SDS011;34866;48.670;18.260;2023-04-25T10:03:25;5.50;;;1.90;;
49051;SDS011;34866;48.670;18.260;2023-04-25T10:05:51;4.88;;;1.95;;
49051;SDS011;34866;48.670;18.260;2023-04-25T10:08:19;5.13;;;2.40;;
49051;SDS011;34866;48.670;18.260;2023-04-25T10:10:46;4.32;;;2.17;;
49051;SDS011;34866;48.670;18.260;2023-04-25T10:13:13;7.05;;;2.78;;
49051;SDS011;34866;48.670;18.260;2023-04-25T10:15:40;4.28;;;2.28;;
49051;SDS011;34866;48.670;18.260;2023-04-25T10:18:07;5.72;;;1.90;;
49051;SDS011;34866;48.670;18.260;2023-04-25T10:20:33;4.40;;;2.22;;
49051;SDS011;34866;48.670;18.260;2023-04-25T10:23:03;6.88;;;2.08;;
49051;SDS011;34866;48.670;18.260;2023-04-25T10:25:39;4.30;;;2.10;;
49051;SDS011;34866;48.670;18.260;2023-04-25T10:28:05;4.85;;;2.22;;
49051;SDS011;34866;48.670;18.260;2023-04-25T10:30:31;7.00;;;2.13;;
49051;SDS011;34866;48.670;18.260;2023-04-25T10:32:58;4.15;;;2.30;;
49051;SDS011;34866;48.670;18.260;2023-04-25T10:35:25;5.93;;;2.55;;
49051;SDS011;34866;48.670;18.260;2023-04-25T10:38:09;6.95;;;2.38;;
49051;SDS011;34866;48.670;18.260;2023-04-25T10:40:36;4.45;;;2.22;;
49051;SDS011;34866;48.670;18.260;2023-04-25T10:46:00;6.55;;;2.13;;
49051;SDS011;34866;48.670;18.260;2023-04-25T10:48:28;3.85;;;1.90;;
49051;SDS011;34866;48.670;18.260;2023-04-25T10:51:08;4.22;;;2.17;;
49051;SDS011;34866;48.670;18.260;2023-04-25T10:53:37;5.72;;;2.20;;
49051;SDS011;34866;48.670;18.260;2023-04-25T10:56:10;3.35;;;1.80;;
49051;SDS011;34866;48.670;18.260;2023-04-25T10:58:41;3.92;;;2.00;;
49051;SDS011;34866;48.670;18.260;2023-04-25T11:01:09;4.53;;;1.92;;
49051;SDS011;34866;48.670;18.260;2023-04-25T11:03:42;3.57;;;1.90;;
49051;SDS011;34866;48.670;18.260;2023-04-25T11:08:59;5.57;;;2.15;;
49051;SDS011;34866;48.670;18.260;2023-04-25T11:11:29;3.70;;;1.98;;
49051;SDS011;34866;48.670;18.260;2023-04-25T11:13:55;3.65;;;2.17;;
49051;SDS011;34866;48.670;18.260;2023-04-25T11:16:24;4.03;;;1.90;;
49051;SDS011;34866;48.670;18.260;2023-04-25T11:19:13;4.28;;;2.00;;
49051;SDS011;34866;48.670;18.260;2023-04-25T11:21:41;7.25;;;2.63;;
49051;SDS011;34866;48.670;18.260;2023-04-25T11:24:16;5.53;;;2.78;;
49051;SDS011;34866;48.670;18.260;2023-04-25T11:26:54;4.70;;;2.47;;
49051;SDS011;34866;48.670;18.260;2023-04-25T11:29:22;5.07;;;2.55;;
49051;SDS011;34866;48.670;18.260;2023-04-25T11:31:52;6.70;;;1.75;;
49051;SDS011;34866;48.670;18.260;2023-04-25T11:34:24;4.80;;;2.20;;
49051;SDS011;34866;48.670;18.260;2023-04-25T11:36:53;9.38;;;2.85;;
49051;SDS011;34866;48.670;18.260;2023-04-25T11:39:21;3.72;;;1.95;;
49051;SDS011;34866;48.670;18.260;2023-04-25T11:42:13;6.45;;;2.40;;
49051;SDS011;34866;48.670;18.260;2023-04-25T11:44:39;4.80;;;3.05;;
49051;SDS011;34866;48.670;18.260;2023-04-25T11:47:43;4.32;;;2.35;;
49051;SDS011;34866;48.670;18.260;2023-04-25T11:50:10;6.65;;;2.03;;
49051;SDS011;34866;48.670;18.260;2023-04-25T11:52:36;4.22;;;1.80;;
49051;SDS011;34866;48.670;18.260;2023-04-25T11:55:08;8.05;;;2.25;;
49051;SDS011;34866;48.670;18.260;2023-04-25T11:57:47;4.40;;;2.25;;
49051;SDS011;34866;48.670;18.260;2023-04-25T12:00:17;6.35;;;2.00;;
49051;SDS011;34866;48.670;18.260;2023-04-25T12:03:03;6.00;;;2.17;;
49051;SDS011;34866;48.670;18.260;2023-04-25T12:05:35;5.47;;;1.98;;
49051;SDS011;34866;48.670;18.260;2023-04-25T12:08:12;4.88;;;1.80;;
49051;SDS011;34866;48.670;18.260;2023-04-25T12:10:39;5.38;;;1.75;;
49051;SDS011;34866;48.670;18.260;2023-04-25T12:15:55;4.30;;;2.10;;
49051;SDS011;34866;48.670;18.260;2023-04-25T12:18:23;7.57;;;2.67;;
49051;SDS011;34866;48.670;18.260;2023-04-25T12:21:01;6.93;;;2.42;;
49051;SDS011;34866;48.670;18.260;2023-04-25T12:23:29;6.43;;;2.50;;
49051;SDS011;34866;48.670;18.260;2023-04-25T12:25:55;4.57;;;2.20;;
49051;SDS011;34866;48.670;18.260;2023-04-25T12:28:22;4.13;;;1.98;;
49051;SDS011;34866;48.670;18.260;2023-04-25T12:33:24;5.80;;;2.00;;
49051;SDS011;34866;48.670;18.260;2023-04-25T12:35:51;6.63;;;2.03;;
49051;SDS011;34866;48.670;18.260;2023-04-25T12:38:23;3.75;;;1.75;;
49051;SDS011;34866;48.670;18.260;2023-04-25T12:40:50;8.13;;;2.22;;
49051;SDS011;34866;48.670;18.260;2023-04-25T12:43:17;3.13;;;1.77;;
49051;SDS011;34866;48.670;18.260;2023-04-25T12:45:44;6.28;;;2.08;;
49051;SDS011;34866;48.670;18.260;2023-04-25T12:48:15;13.52;;;2.30;;
49051;SDS011;34866;48.670;18.260;2023-04-25T12:50:43;4.38;;;2.25;;
49051;SDS011;34866;48.670;18.260;2023-04-25T12:53:10;3.53;;;2.15;;
49051;SDS011;34866;48.670;18.260;2023-04-25T12:55:37;3.58;;;1.70;;
49051;SDS011;34866;48.670;18.260;2023-04-25T12:58:03;3.53;;;1.75;;
49051;SDS011;34866;48.670;18.260;2023-04-25T13:00:29;5.63;;;1.95;;
49051;SDS011;34866;48.670;18.260;2023-04-25T13:02:55;12.10;;;2.15;;
49051;SDS011;34866;48.670;18.260;2023-04-25T13:05:21;4.82;;;2.05;;
49051;SDS011;34866;48.670;18.260;2023-04-25T13:07:47;7.18;;;2.10;;
49051;SDS011;34866;48.670;18.260;2023-04-25T13:10:12;6.35;;;2.25;;
49051;SDS011;34866;48.670;18.260;2023-04-25T13:12:38;4.15;;;2.40;;
49051;SDS011;34866;48.670;18.260;2023-04-25T13:15:04;3.45;;;1.63;;
49051;SDS011;34866;48.670;18.260;2023-04-25T13:17:31;4.07;;;1.77;;
49051;SDS011;34866;48.670;18.260;2023-04-25T13:19:57;4.20;;;1.85;;
49051;SDS011;34866;48.670;18.260;2023-04-25T13:22:39;7.38;;;2.08;;
49051;SDS011;34866;48.670;18.260;2023-04-25T13:25:06;4.07;;;1.92;;
49051;SDS011;34866;48.670;18.260;2023-04-25T13:27:39;3.90;;;2.05;;
49051;SDS011;34866;48.670;18.260;2023-04-25T13:30:07;7.85;;;2.53;;
49051;SDS011;34866;48.670;18.260;2023-04-25T13:32:36;7.45;;;3.15;;
49051;SDS011;34866;48.670;18.260;2023-04-25T13:35:03;3.78;;;2.00;;
49051;SDS011;34866;48.670;18.260;2023-04-25T13:37:30;4.40;;;1.83;;
49051;SDS011;34866;48.670;18.260;2023-04-25T13:39:58;3.90;;;1.80;;
49051;SDS011;34866;48.670;18.260;2023-04-25T13:42:35;4.88;;;1.80;;
49051;SDS011;34866;48.670;18.260;2023-04-25T13:45:02;4.53;;;2.00;;
49051;SDS011;34866;48.670;18.260;2023-04-25T13:47:28;4.70;;;2.28;;
49051;SDS011;34866;48.670;18.260;2023-04-25T13:49:55;4.22;;;2.10;;
49051;SDS011;34866;48.670;18.260;2023-04-25T13:52:23;3.35;;;1.83;;
49051;SDS011;34866;48.670;18.260;2023-04-25T13:54:52;4.18;;;1.70;;
49051;SDS011;34866;48.670;18.260;2023-04-25T13:57:18;4.53;;;1.92;;
49051;SDS011;34866;48.670;18.260;2023-04-25T13:59:44;7.75;;;2.70;;
49051;SDS011;34866;48.670;18.260;2023-04-25T14:02:12;23.90;;;2.25;;
49051;SDS011;34866;48.670;18.260;2023-04-25T14:04:38;4.20;;;2.17;;
49051;SDS011;34866;48.670;18.260;2023-04-25T14:07:07;7.05;;;2.35;;
49051;SDS011;34866;48.670;18.260;2023-04-25T14:09:47;3.88;;;2.15;;
49051;SDS011;34866;48.670;18.260;2023-04-25T14:12:14;9.60;;;3.15;;
49051;SDS011;34866;48.670;18.260;2023-04-25T14:14:41;5.40;;;2.53;;
49051;SDS011;34866;48.670;18.260;2023-04-25T14:17:08;6.65;;;1.50;;
49051;SDS011;34866;48.670;18.260;2023-04-25T14:19:34;3.35;;;1.63;;
49051;SDS011;34866;48.670;18.260;2023-04-25T14:22:01;4.53;;;1.80;;
49051;SDS011;34866;48.670;18.260;2023-04-25T14:24:27;5.10;;;1.20;;
49051;SDS011;34866;48.670;18.260;2023-04-25T14:26:53;47.13;;;3.83;;
49051;SDS011;34866;48.670;18.260;2023-04-25T14:29:18;4.38;;;1.80;;
49051;SDS011;34866;48.670;18.260;2023-04-25T14:31:44;3.95;;;2.00;;
49051;SDS011;34866;48.670;18.260;2023-04-25T14:34:11;6.75;;;2.20;;
49051;SDS011;34866;48.670;18.260;2023-04-25T14:36:37;4.00;;;1.40;;
49051;SDS011;34866;48.670;18.260;2023-04-25T14:39:03;7.70;;;2.38;;
49051;SDS011;34866;48.670;18.260;2023-04-25T14:41:32;3.55;;;1.30;;
49051;SDS011;34866;48.670;18.260;2023-04-25T14:43:57;2.90;;;1.30;;
49051;SDS011;34866;48.670;18.260;2023-04-25T14:46:23;3.67;;;1.35;;
49051;SDS011;34866;48.670;18.260;2023-04-25T14:48:51;2.38;;;1.13;;